Time;durP1;ratioP1;P1;durP2;ratioP2;P2;SDS_P1;SDS_P2;PMS_P1;PMS_P2;Temp;Humidity;BMP_temperature;BMP_pressure;BME280_temperature;BME280_humidity;BME280_pressure;Samples;Min_cycle;Max_cycle;Signal;HPM_P1;HPM_P2
2022/09/06 00:00:00;;;;;;;14.97;13.17;;;;;;;;;;10110467;29;20835;-80
2022/09/06 00:05:02;;;;;;;13.65;12.32;;;;;;;;;;10122667;29;20512;-80
2022/09/06 00:10:05;;;;;;;14.20;12.32;;;;;;;;;;10122448;29;20416;-80
2022/09/06 00:15:09;;;;;;;16.17;13.32;;;;;;;;;;10122077;29;20444;-80
2022/09/06 00:20:11;;;;;;;15.43;13.00;;;;;;;;;;10120478;29;20573;-80
2022/09/06 00:25:13;;;;;;;15.83;13.40;;;;;;;;;;10121065;29;20417;-80
2022/09/06 00:30:16;;;;;;;15.40;12.90;;;;;;;;;;10120275;29;20497;-80
2022/09/06 00:35:18;;;;;;;14.67;13.13;;;;;;;;;;10120034;29;20435;-80
2022/09/06 00:40:20;;;;;;;13.83;12.33;;;;;;;;;;10120034;29;20492;-81
2022/09/06 00:45:25;;;;;;;13.90;12.60;;;;;;;;;;10119193;29;20477;-81
2022/09/06 00:50:28;;;;;;;13.88;12.48;;;;;;;;;;10118280;29;20492;-80
2022/09/06 00:55:30;;;;;;;13.63;12.23;;;;;;;;;;10118098;29;20525;-81
2022/09/06 01:00:33;;;;;;;14.27;12.27;;;;;;;;;;10097038;29;20413;-81
2022/09/06 01:05:43;;;;;;;13.40;12.00;;;;;;;;;;10117748;29;20439;-81
2022/09/06 01:11:05;;;;;;;14.15;12.63;;;;;;;;;;10120319;29;20419;-80
2022/09/06 01:16:13;;;;;;;12.88;11.68;;;;;;;;;;10127935;29;20496;-80
2022/09/06 01:21:34;;;;;;;13.57;12.20;;;;;;;;;;10127599;29;20417;-80
2022/09/06 01:27:17;;;;;;;13.48;11.95;;;;;;;;;;10126405;29;20539;-80
2022/09/06 01:32:35;;;;;;;13.30;11.93;;;;;;;;;;10118347;29;20793;-80
2022/09/06 01:37:37;;;;;;;13.48;12.02;;;;;;;;;;10125229;29;20902;-81
2022/09/06 01:42:40;;;;;;;13.00;11.37;;;;;;;;;;10125939;29;20482;-80
2022/09/06 01:47:54;;;;;;;14.27;11.95;;;;;;;;;;10124901;29;20421;-80
2022/09/06 01:53:05;;;;;;;12.98;11.38;;;;;;;;;;10113508;29;20485;-80
2022/09/06 01:58:20;;;;;;;13.02;11.73;;;;;;;;;;10125754;29;20942;-81
2022/09/06 02:03:29;;;;;;;12.33;10.97;;;;;;;;;;10126425;29;20496;-80
2022/09/06 02:08:35;;;;;;;13.88;11.50;;;;;;;;;;10124788;29;20520;-80
2022/09/06 02:13:40;;;;;;;12.95;11.05;;;;;;;;;;10125952;29;20433;-80
2022/09/06 02:18:47;;;;;;;13.50;11.80;;;;;;;;;;10123744;29;20439;-80
2022/09/06 02:23:51;;;;;;;13.23;11.23;;;;;;;;;;10112024;29;20426;-80
2022/09/06 02:28:54;;;;;;;11.95;10.65;;;;;;;;;;10123365;29;20413;-80
2022/09/06 02:33:58;;;;;;;12.90;11.60;;;;;;;;;;10123326;29;20465;-81
2022/09/06 02:39:00;;;;;;;13.38;11.60;;;;;;;;;;10124225;29;20414;-80
2022/09/06 02:44:03;;;;;;;14.95;12.20;;;;;;;;;;10122077;29;20944;-80
2022/09/06 02:49:06;;;;;;;13.87;12.00;;;;;;;;;;10125490;29;20496;-80
2022/09/06 02:54:08;;;;;;;12.73;11.40;;;;;;;;;;10125767;29;20429;-81
2022/09/06 02:59:09;;;;;;;12.57;11.27;;;;;;;;;;10124246;29;20417;-80
2022/09/06 03:04:13;;;;;;;12.52;11.23;;;;;;;;;;10113369;29;20414;-80
2022/09/06 03:09:14;;;;;;;14.82;11.55;;;;;;;;;;10112252;29;20500;-80
2022/09/06 03:14:18;;;;;;;13.35;11.77;;;;;;;;;;10124504;29;20528;-80
2022/09/06 03:19:21;;;;;;;13.63;12.02;;;;;;;;;;10124885;29;20414;-80
2022/09/06 03:24:23;;;;;;;15.15;12.32;;;;;;;;;;10124199;29;20886;-80
2022/09/06 03:29:25;;;;;;;13.35;12.02;;;;;;;;;;10122618;29;20832;-80
2022/09/06 03:34:28;;;;;;;15.68;12.50;;;;;;;;;;10109984;29;20944;-80
2022/09/06 03:39:30;;;;;;;13.73;12.02;;;;;;;;;;10121049;29;20524;-80
2022/09/06 03:44:32;;;;;;;15.35;12.32;;;;;;;;;;10119635;29;20504;-79
2022/09/06 03:49:35;;;;;;;12.82;11.63;;;;;;;;;;10119424;29;20921;-80
2022/09/06 03:54:37;;;;;;;14.10;12.70;;;;;;;;;;10121945;29;20801;-80
2022/09/06 03:59:38;;;;;;;14.60;13.20;;;;;;;;;;10122419;29;20504;-80
2022/09/06 04:04:42;;;;;;;15.30;13.70;;;;;;;;;;10121958;29;20410;-80
2022/09/06 04:09:43;;;;;;;15.93;13.95;;;;;;;;;;10120887;29;20496;-80
2022/09/06 04:14:45;;;;;;;15.07;13.47;;;;;;;;;;10120706;29;20445;-80
2022/09/06 04:19:49;;;;;;;15.23;12.80;;;;;;;;;;10119019;29;20422;-80
2022/09/06 04:24:51;;;;;;;14.98;12.25;;;;;;;;;;10119702;29;20415;-81
2022/09/06 04:29:52;;;;;;;14.73;13.13;;;;;;;;;;10118708;29;20413;-80
2022/09/06 04:34:56;;;;;;;15.15;13.60;;;;;;;;;;10117285;29;20528;-80
2022/09/06 04:39:57;;;;;;;15.00;13.40;;;;;;;;;;10117145;29;20413;-80
2022/09/06 04:44:59;;;;;;;14.80;13.27;;;;;;;;;;10116083;29;20833;-80
2022/09/06 04:50:02;;;;;;;16.30;13.65;;;;;;;;;;10115561;29;20503;-80
2022/09/06 04:55:05;;;;;;;15.00;13.27;;;;;;;;;;10119550;29;20440;-80
2022/09/06 05:00:08;;;;;;;16.67;14.63;;;;;;;;;;10120699;29;20405;-80
2022/09/06 05:05:11;;;;;;;17.83;14.70;;;;;;;;;;10121071;29;20441;-80
2022/09/06 05:10:13;;;;;;;15.80;14.13;;;;;;;;;;10120780;29;20421;-80
2022/09/06 05:15:15;;;;;;;17.67;13.98;;;;;;;;;;10121326;29;20433;-80
2022/09/06 05:20:18;;;;;;;15.40;13.80;;;;;;;;;;10108670;29;20412;-80
2022/09/06 05:25:20;;;;;;;15.47;13.83;;;;;;;;;;10108416;29;20419;-80
2022/09/06 05:30:22;;;;;;;15.00;13.07;;;;;;;;;;10121042;29;20424;-80
2022/09/06 05:35:25;;;;;;;14.63;13.13;;;;;;;;;;10120899;29;20736;-80
2022/09/06 05:40:27;;;;;;;13.85;12.40;;;;;;;;;;10120400;29;20409;-80
2022/09/06 05:45:29;;;;;;;14.10;12.30;;;;;;;;;;10118758;29;20528;-80
2022/09/06 05:50:32;;;;;;;15.10;12.57;;;;;;;;;;10116517;29;20511;-79
2022/09/06 05:55:34;;;;;;;14.32;12.30;;;;;;;;;;10120275;29;20908;-79
2022/09/06 06:00:36;;;;;;;13.68;12.02;;;;;;;;;;10125597;29;20407;-79
2022/09/06 06:05:39;;;;;;;12.82;11.20;;;;;;;;;;10127092;29;20894;-80
2022/09/06 06:10:41;;;;;;;12.48;11.20;;;;;;;;;;10126375;29;20838;-80
2022/09/06 06:15:43;;;;;;;15.07;11.57;;;;;;;;;;10125447;29;20846;-79
2022/09/06 06:20:46;;;;;;;13.45;10.50;;;;;;;;;;10124186;29;20924;-80
2022/09/06 06:25:48;;;;;;;12.27;10.00;;;;;;;;;;10123526;29;20413;-79
2022/09/06 06:30:49;;;;;;;11.70;9.88;;;;;;;;;;10121897;29;20883;-80
2022/09/06 06:36:00;;;;;;;11.63;10.35;;;;;;;;;;10121026;29;20441;-80
2022/09/06 06:41:02;;;;;;;10.90;9.83;;;;;;;;;;10111303;29;20506;-80
2022/09/06 06:46:04;;;;;;;10.60;9.50;;;;;;;;;;10120297;29;20500;-80
2022/09/06 06:51:07;;;;;;;11.33;10.13;;;;;;;;;;10120267;29;20960;-80
2022/09/06 06:56:17;;;;;;;11.18;9.98;;;;;;;;;;10125099;29;20437;-80
2022/09/06 07:01:20;;;;;;;11.73;10.52;;;;;;;;;;10124251;29;20417;-80
2022/09/06 07:06:26;;;;;;;11.90;10.27;;;;;;;;;;10123701;29;20543;-79
2022/09/06 07:11:28;;;;;;;11.20;9.43;;;;;;;;;;10123750;29;20718;-80
2022/09/06 07:16:30;;;;;;;11.30;9.90;;;;;;;;;;10122658;29;20443;-80
2022/09/06 07:21:33;;;;;;;10.82;9.73;;;;;;;;;;10124070;29;20486;-80
2022/09/06 07:26:36;;;;;;;12.20;9.30;;;;;;;;;;10122856;29;20413;-79
2022/09/06 07:31:38;;;;;;;9.88;8.30;;;;;;;;;;10122062;29;20425;-80
2022/09/06 07:36:41;;;;;;;13.35;8.95;;;;;;;;;;10120313;29;20532;-80
2022/09/06 07:41:43;;;;;;;10.43;8.60;;;;;;;;;;10120160;29;20509;-80
2022/09/06 07:46:45;;;;;;;8.30;7.50;;;;;;;;;;10119427;29;20500;-80
2022/09/06 07:51:49;;;;;;;7.47;6.67;;;;;;;;;;10118073;29;20778;-80
2022/09/06 07:56:50;;;;;;;11.20;7.88;;;;;;;;;;10122935;29;20843;-80
2022/09/06 08:01:52;;;;;;;10.55;7.78;;;;;;;;;;10122303;29;20484;-79
2022/09/06 08:06:56;;;;;;;11.77;8.60;;;;;;;;;;10110058;29;20429;-80
2022/09/06 08:11:57;;;;;;;8.63;7.72;;;;;;;;;;10121056;29;20855;-80
2022/09/06 08:16:59;;;;;;;10.23;6.60;;;;;;;;;;10119661;29;20524;-80
2022/09/06 08:22:03;;;;;;;7.15;6.00;;;;;;;;;;10117155;29;20423;-79
2022/09/06 08:27:06;;;;;;;8.85;6.80;;;;;;;;;;10116816;29;20504;-79
2022/09/06 08:32:08;;;;;;;6.47;5.87;;;;;;;;;;10116641;29;20421;-78
2022/09/06 08:37:11;;;;;;;8.30;6.05;;;;;;;;;;10115002;29;20443;-80
2022/09/06 08:42:13;;;;;;;7.60;5.60;;;;;;;;;;10113841;29;20506;-79
2022/09/06 08:47:16;;;;;;;6.30;5.70;;;;;;;;;;10113063;29;20436;-81
2022/09/06 08:52:41;;;;;;;9.32;6.38;;;;;;;;;;10115794;29;20746;-81
2022/09/06 08:58:01;;;;;;;6.28;5.40;;;;;;;;;;10092294;29;20429;-81
2022/09/06 09:03:09;;;;;;;6.00;5.30;;;;;;;;;;10104250;29;20520;-80
2022/09/06 09:08:22;;;;;;;7.85;5.18;;;;;;;;;;10110929;29;20418;-81
2022/09/06 09:13:30;;;;;;;8.07;5.23;;;;;;;;;;10095958;29;20513;-79
2022/09/06 09:18:34;;;;;;;6.40;5.70;;;;;;;;;;10110748;29;20902;-79
2022/09/06 09:23:37;;;;;;;5.78;4.75;;;;;;;;;;10120505;29;20508;-80
2022/09/06 09:28:39;;;;;;;8.15;5.75;;;;;;;;;;10120796;29;20496;-80
2022/09/06 09:33:41;;;;;;;7.93;5.80;;;;;;;;;;10122484;29;20524;-80
2022/09/06 09:38:48;;;;;;;8.10;4.90;;;;;;;;;;10127718;29;20480;-80
2022/09/06 09:43:57;;;;;;;6.40;5.10;;;;;;;;;;10126581;29;20689;-80
2022/09/06 09:49:06;;;;;;;9.45;6.18;;;;;;;;;;10114686;29;20417;-80
2022/09/06 09:54:11;;;;;;;7.00;5.15;;;;;;;;;;10112334;29;20437;-80
2022/09/06 09:59:20;;;;;;;7.07;4.80;;;;;;;;;;10090804;29;20410;-79
2022/09/06 10:04:29;;;;;;;4.45;4.00;;;;;;;;;;10090210;29;20417;-79
2022/09/06 10:09:35;;;;;;;4.38;3.88;;;;;;;;;;10090189;29;20784;-80
2022/09/06 10:14:41;;;;;;;4.28;3.80;;;;;;;;;;10112737;29;20439;-79
2022/09/06 10:19:46;;;;;;;5.53;4.70;;;;;;;;;;10125090;29;20920;-78
2022/09/06 10:25:06;;;;;;;7.25;4.72;;;;;;;;;;10113707;29;20417;-78
2022/09/06 10:30:09;;;;;;;6.80;4.80;;;;;;;;;;10123404;29;20420;-78
2022/09/06 10:35:22;;;;;;;5.90;4.35;;;;;;;;;;10122774;29;20813;-79
2022/09/06 10:40:33;;;;;;;5.03;4.47;;;;;;;;;;10122056;29;20862;-79
2022/09/06 10:45:44;;;;;;;6.00;4.35;;;;;;;;;;10118792;29;20496;-79
2022/09/06 10:50:51;;;;;;;5.97;4.95;;;;;;;;;;10109617;29;20427;-77
2022/09/06 10:56:03;;;;;;;5.57;4.55;;;;;;;;;;10113351;29;20520;-79
2022/09/06 11:01:07;;;;;;;6.90;5.23;;;;;;;;;;10125226;29;20417;-79
2022/09/06 11:06:10;;;;;;;12.00;5.50;;;;;;;;;;10125554;29;20887;-79
2022/09/06 11:11:20;;;;;;;5.00;4.50;;;;;;;;;;10124947;29;20416;-79
2022/09/06 11:16:28;;;;;;;8.43;5.50;;;;;;;;;;10124360;29;20437;-79
2022/09/06 11:21:54;;;;;;;5.80;5.20;;;;;;;;;;10124666;29;20512;-79
2022/09/06 11:27:05;;;;;;;7.15;5.07;;;;;;;;;;10092828;29;20910;-79
2022/09/06 11:32:31;;;;;;;5.40;4.90;;;;;;;;;;10123523;29;20917;-78
2022/09/06 11:37:38;;;;;;;5.00;4.32;;;;;;;;;;10120998;29;20432;-79
2022/09/06 11:43:09;;;;;;;5.33;4.83;;;;;;;;;;10122589;29;20475;-79
2022/09/06 11:48:35;;;;;;;8.52;4.45;;;;;;;;;;10121484;29;20413;-79
2022/09/06 11:54:09;;;;;;;6.43;4.38;;;;;;;;;;10121818;29;20432;-80
2022/09/06 11:59:38;;;;;;;7.10;6.20;;;;;;;;;;10123540;29;20402;-81
2022/09/06 12:05:11;;;;;;;7.30;4.63;;;;;;;;;;10122555;29;20409;-81
2022/09/06 12:10:55;;;;;;;6.47;4.90;;;;;;;;;;10110317;29;20415;-81
2022/09/06 12:15:58;;;;;;;6.68;4.55;;;;;;;;;;10122451;29;20910;-80
2022/09/06 12:21:04;;;;;;;6.50;5.40;;;;;;;;;;10121717;29;20419;-81
2022/09/06 12:26:07;;;;;;;7.55;5.47;;;;;;;;;;10120371;29;20413;-80
2022/09/06 12:31:40;;;;;;;5.37;4.67;;;;;;;;;;10119669;29;20421;-81
2022/09/06 12:36:58;;;;;;;5.93;5.07;;;;;;;;;;10048359;29;20443;-81
2022/09/06 12:42:03;;;;;;;5.22;4.13;;;;;;;;;;10121005;29;20417;-80
2022/09/06 12:47:10;;;;;;;5.65;4.00;;;;;;;;;;10119069;29;20949;-80
2022/09/06 12:52:15;;;;;;;5.70;3.90;;;;;;;;;;10108786;29;20767;-78
2022/09/06 12:57:22;;;;;;;4.90;4.33;;;;;;;;;;10121307;29;20433;-80
2022/09/06 13:02:34;;;;;;;6.60;4.10;;;;;;;;;;10120390;29;20504;-79
2022/09/06 13:07:43;;;;;;;5.40;3.63;;;;;;;;;;10120593;29;20504;-79
2022/09/06 13:12:47;;;;;;;5.25;3.70;;;;;;;;;;10120741;29;20412;-79
2022/09/06 13:17:49;;;;;;;4.15;3.83;;;;;;;;;;10120090;29;20440;-80
2022/09/06 13:22:54;;;;;;;4.80;4.10;;;;;;;;;;10118924;29;20962;-80
2022/09/06 13:27:57;;;;;;;4.45;3.58;;;;;;;;;;10107437;29;20436;-80
2022/09/06 13:33:00;;;;;;;4.00;3.60;;;;;;;;;;10118379;29;20703;-79
2022/09/06 13:38:31;;;;;;;5.87;3.30;;;;;;;;;;10117124;29;20970;-79
2022/09/06 13:43:43;;;;;;;3.83;3.43;;;;;;;;;;10116110;29;20427;-79
2022/09/06 13:48:45;;;;;;;4.78;3.35;;;;;;;;;;10114529;29;20492;-80
2022/09/06 13:53:49;;;;;;;5.60;3.35;;;;;;;;;;10118835;29;20894;-80
2022/09/06 13:58:50;;;;;;;4.05;3.45;;;;;;;;;;10119705;29;20427;-80
2022/09/06 14:03:53;;;;;;;3.27;3.00;;;;;;;;;;10119475;29;20598;-80
2022/09/06 14:08:56;;;;;;;4.53;3.30;;;;;;;;;;10120566;29;20480;-80
2022/09/06 14:13:58;;;;;;;6.18;3.30;;;;;;;;;;10118991;29;20425;-80
2022/09/06 14:19:00;;;;;;;4.97;3.57;;;;;;;;;;10117396;29;20789;-82
2022/09/06 14:24:04;;;;;;;3.60;3.30;;;;;;;;;;10122901;29;20512;-80
2022/09/06 14:29:07;;;;;;;4.97;3.40;;;;;;;;;;10122759;29;20713;-80
2022/09/06 14:34:08;;;;;;;4.95;2.90;;;;;;;;;;10120786;29;20441;-80
2022/09/06 14:39:12;;;;;;;5.93;3.05;;;;;;;;;;10118762;29;20444;-78
2022/09/06 14:44:13;;;;;;;3.75;2.90;;;;;;;;;;10117742;29;20832;-80
2022/09/06 14:49:15;;;;;;;6.43;3.40;;;;;;;;;;10118003;29;20421;-80
2022/09/06 14:54:19;;;;;;;4.17;3.10;;;;;;;;;;10113391;29;20421;-80
2022/09/06 14:59:21;;;;;;;5.23;3.17;;;;;;;;;;10107915;29;20429;-80
2022/09/06 15:04:23;;;;;;;6.85;3.30;;;;;;;;;;10112137;29;20556;-80
2022/09/06 15:09:26;;;;;;;3.58;3.28;;;;;;;;;;10086998;29;20415;-79
2022/09/06 15:14:29;;;;;;;5.82;3.47;;;;;;;;;;10121492;29;20533;-81
2022/09/06 15:19:32;;;;;;;4.77;3.20;;;;;;;;;;10124229;29;20941;-80
2022/09/06 15:24:36;;;;;;;5.53;3.13;;;;;;;;;;10122163;29;20424;-80
2022/09/06 15:29:38;;;;;;;7.88;3.00;;;;;;;;;;10121780;29;20880;-80
2022/09/06 15:34:40;;;;;;;3.42;2.40;;;;;;;;;;10121180;29;20469;-80
2022/09/06 15:39:43;;;;;;;4.03;2.90;;;;;;;;;;10121818;29;20419;-80
2022/09/06 15:44:44;;;;;;;5.13;2.80;;;;;;;;;;10121178;29;20421;-78
2022/09/06 15:49:48;;;;;;;3.80;2.97;;;;;;;;;;10120401;29;21065;-80
2022/09/06 16:00:12;;;;;;;2.75;2.55;;;;;;;;;;10123131;29;20405;-80
2022/09/06 16:05:14;;;;;;;2.97;2.67;;;;;;;;;;10122579;29;20448;-81
2022/09/06 16:10:18;;;;;;;3.97;2.88;;;;;;;;;;10121740;29;20429;-80
2022/09/06 16:15:19;;;;;;;3.28;2.83;;;;;;;;;;10122126;29;20433;-80
2022/09/06 16:20:21;;;;;;;4.20;2.47;;;;;;;;;;10121630;29;20512;-80
2022/09/06 16:25:25;;;;;;;5.07;2.67;;;;;;;;;;10121051;29;20480;-80
2022/09/06 16:30:27;;;;;;;6.18;2.80;;;;;;;;;;10120927;29;20419;-79
2022/09/06 16:35:28;;;;;;;3.10;2.80;;;;;;;;;;10121203;29;20437;-80
2022/09/06 16:40:32;;;;;;;3.03;2.75;;;;;;;;;;10121217;29;20778;-80
2022/09/06 16:45:33;;;;;;;5.40;2.97;;;;;;;;;;10119163;29;20504;-81
2022/09/06 16:50:35;;;;;;;4.50;2.73;;;;;;;;;;10119497;29;20516;-80
2022/09/06 16:55:39;;;;;;;3.60;2.90;;;;;;;;;;10107785;29;20444;-80
2022/09/06 17:00:41;;;;;;;5.22;2.83;;;;;;;;;;10110376;29;20413;-81
2022/09/06 17:05:43;;;;;;;3.35;2.80;;;;;;;;;;10120636;29;20492;-81
2022/09/06 17:10:46;;;;;;;3.97;2.93;;;;;;;;;;10119528;29;20413;-81
2022/09/06 17:21:13;;;;;;;3.70;2.60;;;;;;;;;;10114041;29;20431;-79
2022/09/06 17:26:18;;;;;;;3.28;2.97;;;;;;;;;;10112507;29;20444;-79
2022/09/06 17:31:20;;;;;;;5.50;3.10;;;;;;;;;;10091675;29;20440;-79
2022/09/06 17:36:23;;;;;;;5.47;2.75;;;;;;;;;;10112422;29;20512;-81
2022/09/06 17:41:28;;;;;;;4.25;2.85;;;;;;;;;;10113978;29;20507;-80
2022/09/06 17:46:30;;;;;;;4.63;3.13;;;;;;;;;;10115320;29;21038;-80
2022/09/06 17:51:33;;;;;;;4.63;3.35;;;;;;;;;;10116843;29;20986;-80
2022/09/06 17:56:36;;;;;;;5.07;4.00;;;;;;;;;;10103600;29;20521;-80
2022/09/06 18:01:39;;;;;;;5.18;3.30;;;;;;;;;;10124765;29;20492;-80
2022/09/06 18:06:45;;;;;;;6.03;3.08;;;;;;;;;;10126766;29;20882;-79
2022/09/06 18:11:48;;;;;;;5.82;3.95;;;;;;;;;;10126203;29;20505;-80
2022/09/06 18:16:51;;;;;;;6.35;3.90;;;;;;;;;;10126512;29;20504;-80
2022/09/06 18:21:53;;;;;;;4.10;3.63;;;;;;;;;;10126421;29;20851;-80
2022/09/06 18:26:57;;;;;;;5.50;3.40;;;;;;;;;;10125672;29;20514;-80
2022/09/06 18:31:59;;;;;;;4.65;3.40;;;;;;;;;;10124229;29;20445;-80
2022/09/06 18:37:01;;;;;;;4.32;3.15;;;;;;;;;;10124136;29;20437;-80
2022/09/06 18:42:09;;;;;;;6.85;3.70;;;;;;;;;;10124676;29;20496;-79
2022/09/06 18:47:12;;;;;;;7.53;3.50;;;;;;;;;;10121344;29;20420;-80
2022/09/06 18:52:14;;;;;;;5.00;3.92;;;;;;;;;;10111545;29;20417;-79
2022/09/06 18:57:17;;;;;;;6.68;3.83;;;;;;;;;;10125038;29;20452;-80
2022/09/06 19:02:21;;;;;;;6.40;3.75;;;;;;;;;;10123776;29;20903;-80
2022/09/06 19:07:23;;;;;;;5.68;4.03;;;;;;;;;;10123249;29;20504;-80
2022/09/06 19:12:26;;;;;;;4.37;3.97;;;;;;;;;;10123857;29;20411;-80
2022/09/06 19:17:28;;;;;;;5.22;4.22;;;;;;;;;;10122662;29;20466;-80
2022/09/06 19:22:30;;;;;;;4.87;4.37;;;;;;;;;;10121913;29;20449;-78
2022/09/06 19:27:33;;;;;;;7.05;5.18;;;;;;;;;;10120717;29;20413;-80
2022/09/06 19:32:35;;;;;;;13.65;8.60;;;;;;;;;;10118438;29;20428;-80
2022/09/06 19:37:37;;;;;;;17.13;11.15;;;;;;;;;;10118095;29;20429;-80
2022/09/06 19:42:40;;;;;;;19.63;12.15;;;;;;;;;;10119920;29;20413;-79
2022/09/06 19:47:42;;;;;;;19.60;13.00;;;;;;;;;;10117212;29;20496;-80
2022/09/06 19:52:44;;;;;;;15.88;11.57;;;;;;;;;;10119295;29;20420;-81
2022/09/06 19:57:47;;;;;;;19.63;11.23;;;;;;;;;;10122577;29;20488;-80
2022/09/06 20:02:49;;;;;;;15.07;10.20;;;;;;;;;;10121773;29;20417;-80
2022/09/06 20:07:51;;;;;;;17.50;10.70;;;;;;;;;;10121102;29;20534;-82
2022/09/06 20:12:54;;;;;;;15.27;10.30;;;;;;;;;;10121331;29;20771;-80
2022/09/06 20:17:56;;;;;;;12.65;9.65;;;;;;;;;;10121205;29;20887;-80
2022/09/06 20:22:58;;;;;;;15.68;9.55;;;;;;;;;;10123540;29;20946;-81
2022/09/06 20:28:01;;;;;;;13.38;9.10;;;;;;;;;;10125250;29;20854;-81
2022/09/06 20:33:03;;;;;;;12.75;9.05;;;;;;;;;;10124220;29;20417;-80
2022/09/06 20:38:05;;;;;;;11.70;8.60;;;;;;;;;;10124909;29;20441;-81
2022/09/06 20:43:09;;;;;;;11.00;8.30;;;;;;;;;;10122932;29;20411;-80
2022/09/06 20:48:11;;;;;;;10.07;8.65;;;;;;;;;;10122085;29;20480;-81
2022/09/06 20:53:13;;;;;;;12.05;8.52;;;;;;;;;;10123061;29;20417;-80
2022/09/06 20:58:16;;;;;;;10.90;8.80;;;;;;;;;;10126247;29;20447;-81
2022/09/06 21:03:18;;;;;;;10.93;8.60;;;;;;;;;;10125909;29;20413;-81
2022/09/06 21:08:20;;;;;;;10.27;8.83;;;;;;;;;;10125634;29;20504;-80
2022/09/06 21:13:24;;;;;;;11.93;9.40;;;;;;;;;;10124408;29;20409;-81
2022/09/06 21:18:26;;;;;;;12.60;9.83;;;;;;;;;;10124249;29;20496;-81
2022/09/06 21:23:29;;;;;;;10.47;9.23;;;;;;;;;;10124855;29;20409;-79
2022/09/06 21:28:35;;;;;;;13.88;8.93;;;;;;;;;;10123598;29;20431;-80
2022/09/06 21:33:39;;;;;;;10.63;9.53;;;;;;;;;;10131500;29;20803;-79
2022/09/06 21:38:43;;;;;;;9.53;8.47;;;;;;;;;;10129813;29;20985;-80
2022/09/06 21:43:46;;;;;;;10.00;8.45;;;;;;;;;;10128705;29;20901;-80
2022/09/06 21:48:50;;;;;;;12.57;9.40;;;;;;;;;;10126141;29;20504;-80
2022/09/06 21:53:52;;;;;;;9.03;8.13;;;;;;;;;;10130817;29;20503;-80
2022/09/06 21:58:57;;;;;;;12.80;9.30;;;;;;;;;;10132736;29;20432;-80
2022/09/06 22:03:59;;;;;;;9.68;8.35;;;;;;;;;;10131509;29;20416;-81
2022/09/06 22:09:02;;;;;;;12.02;9.00;;;;;;;;;;10131321;29;20417;-80
2022/09/06 22:14:07;;;;;;;10.13;8.65;;;;;;;;;;10130373;29;20424;-81
2022/09/06 22:19:10;;;;;;;9.85;8.15;;;;;;;;;;10129550;29;20432;-80
2022/09/06 22:24:13;;;;;;;9.83;8.33;;;;;;;;;;10129035;29;20508;-81
2022/09/06 22:29:16;;;;;;;9.15;8.02;;;;;;;;;;10127870;29;20874;-81
2022/09/06 22:34:18;;;;;;;9.73;8.05;;;;;;;;;;10126025;29;20401;-81
2022/09/06 22:39:19;;;;;;;9.57;7.95;;;;;;;;;;10126693;29;20509;-79
2022/09/06 22:44:24;;;;;;;8.88;8.00;;;;;;;;;;10125327;29;20415;-80
2022/09/06 22:49:26;;;;;;;9.00;8.13;;;;;;;;;;10126150;29;20423;-79
2022/09/06 22:54:28;;;;;;;10.35;8.70;;;;;;;;;;10117243;29;20492;-77
2022/09/06 22:59:34;;;;;;;9.70;8.70;;;;;;;;;;10130640;29;20440;-80
2022/09/06 23:04:36;;;;;;;13.05;10.45;;;;;;;;;;10130849;29;20509;-80
2022/09/06 23:09:38;;;;;;;11.65;10.25;;;;;;;;;;10130283;29;20412;-80
2022/09/06 23:14:41;;;;;;;13.90;12.50;;;;;;;;;;10129928;29;20555;-80
2022/09/06 23:19:43;;;;;;;16.75;13.77;;;;;;;;;;10129261;29;20475;-79
2022/09/06 23:24:45;;;;;;;18.17;14.67;;;;;;;;;;10129395;29;20425;-80
2022/09/06 23:29:48;;;;;;;20.57;14.60;;;;;;;;;;10129117;29;20427;-80
2022/09/06 23:34:50;;;;;;;15.73;14.03;;;;;;;;;;10127998;29;20743;-80
2022/09/06 23:39:52;;;;;;;17.63;14.10;;;;;;;;;;10125956;29;20441;-80
2022/09/06 23:44:57;;;;;;;15.60;14.00;;;;;;;;;;10125332;29;20417;-80
2022/09/06 23:49:59;;;;;;;15.93;13.80;;;;;;;;;;10123995;29;20496;-81
2022/09/06 23:55:01;;;;;;;14.67;12.83;;;;;;;;;;10127684;29;20423;-81
